sensor_id;sensor_type;location;lat;lon;timestamp;P1;durP1;ratioP1;P2;durP2;ratioP2
33902;SDS011;20194;50.950;5.346;2022-07-24T00:00:23;8.90;;;5.85;;
33902;SDS011;20194;50.950;5.346;2022-07-24T00:02:49;7.38;;;4.93;;
33902;SDS011;20194;50.950;5.346;2022-07-24T00:05:15;6.32;;;4.97;;
33902;SDS011;20194;50.950;5.346;2022-07-24T00:07:41;6.63;;;5.45;;
33902;SDS011;20194;50.950;5.346;2022-07-24T00:10:07;7.10;;;5.40;;
33902;SDS011;20194;50.950;5.346;2022-07-24T00:12:33;11.05;;;5.90;;
33902;SDS011;20194;50.950;5.346;2022-07-24T00:14:59;6.00;;;5.28;;
33902;SDS011;20194;50.950;5.346;2022-07-24T00:17:25;8.40;;;5.60;;
33902;SDS011;20194;50.950;5.346;2022-07-24T00:19:51;7.78;;;5.90;;
33902;SDS011;20194;50.950;5.346;2022-07-24T00:22:16;7.30;;;5.75;;
33902;SDS011;20194;50.950;5.346;2022-07-24T00:24:42;7.70;;;5.78;;
33902;SDS011;20194;50.950;5.346;2022-07-24T00:27:08;6.18;;;5.45;;
33902;SDS011;20194;50.950;5.346;2022-07-24T00:29:33;7.63;;;5.40;;
33902;SDS011;20194;50.950;5.346;2022-07-24T00:31:59;7.90;;;5.20;;
33902;SDS011;20194;50.950;5.346;2022-07-24T00:34:24;7.82;;;4.95;;
33902;SDS011;20194;50.950;5.346;2022-07-24T00:36:50;14.05;;;7.13;;
33902;SDS011;20194;50.950;5.346;2022-07-24T00:39:16;8.55;;;5.10;;
33902;SDS011;20194;50.950;5.346;2022-07-24T00:41:42;9.13;;;5.50;;
33902;SDS011;20194;50.950;5.346;2022-07-24T00:44:12;7.88;;;5.47;;
33902;SDS011;20194;50.950;5.346;2022-07-24T00:46:40;7.95;;;5.90;;
33902;SDS011;20194;50.950;5.346;2022-07-24T00:49:08;9.13;;;5.00;;
33902;SDS011;20194;50.950;5.346;2022-07-24T00:51:37;6.95;;;5.55;;
33902;SDS011;20194;50.950;5.346;2022-07-24T00:54:05;9.25;;;5.63;;
33902;SDS011;20194;50.950;5.346;2022-07-24T00:56:32;8.93;;;5.47;;
33902;SDS011;20194;50.950;5.346;2022-07-24T00:58:59;13.40;;;6.05;;
33902;SDS011;20194;50.950;5.346;2022-07-24T01:01:25;7.65;;;6.30;;
33902;SDS011;20194;50.950;5.346;2022-07-24T01:03:51;13.68;;;6.15;;
33902;SDS011;20194;50.950;5.346;2022-07-24T01:06:16;12.40;;;6.07;;
33902;SDS011;20194;50.950;5.346;2022-07-24T01:08:42;7.93;;;5.13;;
33902;SDS011;20194;50.950;5.346;2022-07-24T01:11:08;10.38;;;6.20;;
33902;SDS011;20194;50.950;5.346;2022-07-24T01:13:35;9.10;;;5.55;;
33902;SDS011;20194;50.950;5.346;2022-07-24T01:16:01;6.93;;;6.03;;
33902;SDS011;20194;50.950;5.346;2022-07-24T01:18:27;7.72;;;5.65;;
33902;SDS011;20194;50.950;5.346;2022-07-24T01:20:53;12.10;;;6.72;;
33902;SDS011;20194;50.950;5.346;2022-07-24T01:23:21;9.82;;;7.32;;
33902;SDS011;20194;50.950;5.346;2022-07-24T01:25:47;9.57;;;6.75;;
33902;SDS011;20194;50.950;5.346;2022-07-24T01:28:13;8.43;;;6.55;;
33902;SDS011;20194;50.950;5.346;2022-07-24T01:30:39;9.50;;;6.43;;
33902;SDS011;20194;50.950;5.346;2022-07-24T01:33:05;10.68;;;7.00;;
33902;SDS011;20194;50.950;5.346;2022-07-24T01:35:31;16.35;;;7.05;;
33902;SDS011;20194;50.950;5.346;2022-07-24T01:37:57;10.10;;;6.22;;
33902;SDS011;20194;50.950;5.346;2022-07-24T01:40:23;10.32;;;6.35;;
33902;SDS011;20194;50.950;5.346;2022-07-24T01:42:48;10.35;;;6.35;;
33902;SDS011;20194;50.950;5.346;2022-07-24T01:45:15;10.38;;;7.00;;
33902;SDS011;20194;50.950;5.346;2022-07-24T01:47:41;9.75;;;6.55;;
33902;SDS011;20194;50.950;5.346;2022-07-24T01:50:08;7.43;;;6.13;;
33902;SDS011;20194;50.950;5.346;2022-07-24T01:52:35;10.32;;;6.50;;
33902;SDS011;20194;50.950;5.346;2022-07-24T01:55:01;8.65;;;6.45;;
33902;SDS011;20194;50.950;5.346;2022-07-24T01:57:28;7.95;;;6.38;;
33902;SDS011;20194;50.950;5.346;2022-07-24T01:59:54;15.38;;;6.82;;
33902;SDS011;20194;50.950;5.346;2022-07-24T02:02:20;7.63;;;6.35;;
33902;SDS011;20194;50.950;5.346;2022-07-24T02:04:46;13.95;;;8.43;;
33902;SDS011;20194;50.950;5.346;2022-07-24T02:07:12;18.38;;;8.23;;
33902;SDS011;20194;50.950;5.346;2022-07-24T02:09:37;14.30;;;8.55;;
33902;SDS011;20194;50.950;5.346;2022-07-24T02:12:03;13.10;;;8.68;;
33902;SDS011;20194;50.950;5.346;2022-07-24T02:14:30;15.80;;;9.32;;
33902;SDS011;20194;50.950;5.346;2022-07-24T02:16:55;13.93;;;9.52;;
33902;SDS011;20194;50.950;5.346;2022-07-24T02:19:21;15.07;;;9.38;;
33902;SDS011;20194;50.950;5.346;2022-07-24T02:21:48;16.05;;;9.68;;
33902;SDS011;20194;50.950;5.346;2022-07-24T02:24:14;14.50;;;10.75;;
33902;SDS011;20194;50.950;5.346;2022-07-24T02:26:39;17.52;;;10.63;;
33902;SDS011;20194;50.950;5.346;2022-07-24T02:29:05;15.55;;;10.27;;
33902;SDS011;20194;50.950;5.346;2022-07-24T02:31:31;23.52;;;12.65;;
33902;SDS011;20194;50.950;5.346;2022-07-24T02:33:56;18.75;;;12.23;;
33902;SDS011;20194;50.950;5.346;2022-07-24T02:36:22;19.35;;;12.18;;
33902;SDS011;20194;50.950;5.346;2022-07-24T02:38:47;20.92;;;12.43;;
33902;SDS011;20194;50.950;5.346;2022-07-24T02:41:14;20.52;;;13.52;;
33902;SDS011;20194;50.950;5.346;2022-07-24T02:43:39;20.52;;;13.60;;
33902;SDS011;20194;50.950;5.346;2022-07-24T02:46:05;24.48;;;14.30;;
33902;SDS011;20194;50.950;5.346;2022-07-24T02:48:31;22.30;;;14.80;;
33902;SDS011;20194;50.950;5.346;2022-07-24T02:50:56;20.70;;;13.80;;
33902;SDS011;20194;50.950;5.346;2022-07-24T02:53:24;24.98;;;14.95;;
33902;SDS011;20194;50.950;5.346;2022-07-24T02:55:49;26.95;;;16.48;;
33902;SDS011;20194;50.950;5.346;2022-07-24T02:58:15;27.70;;;18.65;;
33902;SDS011;20194;50.950;5.346;2022-07-24T03:00:41;31.98;;;19.05;;
33902;SDS011;20194;50.950;5.346;2022-07-24T03:03:06;35.08;;;20.88;;
33902;SDS011;20194;50.950;5.346;2022-07-24T03:05:32;31.95;;;20.45;;
33902;SDS011;20194;50.950;5.346;2022-07-24T03:07:58;33.13;;;21.05;;
33902;SDS011;20194;50.950;5.346;2022-07-24T03:10:24;28.80;;;19.83;;
33902;SDS011;20194;50.950;5.346;2022-07-24T03:12:49;38.95;;;21.80;;
33902;SDS011;20194;50.950;5.346;2022-07-24T03:15:15;37.70;;;21.88;;
33902;SDS011;20194;50.950;5.346;2022-07-24T03:17:48;29.67;;;20.80;;
33902;SDS011;20194;50.950;5.346;2022-07-24T03:20:18;34.40;;;22.80;;
33902;SDS011;20194;50.950;5.346;2022-07-24T03:22:46;36.03;;;22.77;;
33902;SDS011;20194;50.950;5.346;2022-07-24T03:25:12;34.15;;;22.60;;
33902;SDS011;20194;50.950;5.346;2022-07-24T03:27:38;40.17;;;23.73;;
33902;SDS011;20194;50.950;5.346;2022-07-24T03:30:04;37.33;;;24.48;;
33902;SDS011;20194;50.950;5.346;2022-07-24T03:32:30;35.75;;;24.00;;
33902;SDS011;20194;50.950;5.346;2022-07-24T03:34:57;39.65;;;23.40;;
33902;SDS011;20194;50.950;5.346;2022-07-24T03:37:22;32.97;;;22.75;;
33902;SDS011;20194;50.950;5.346;2022-07-24T03:39:48;40.83;;;22.92;;
33902;SDS011;20194;50.950;5.346;2022-07-24T03:42:14;36.80;;;24.05;;
33902;SDS011;20194;50.950;5.346;2022-07-24T03:44:40;39.50;;;23.60;;
33902;SDS011;20194;50.950;5.346;2022-07-24T03:47:06;33.17;;;22.98;;
33902;SDS011;20194;50.950;5.346;2022-07-24T03:49:31;34.72;;;23.90;;
33902;SDS011;20194;50.950;5.346;2022-07-24T03:51:57;37.00;;;22.83;;
33902;SDS011;20194;50.950;5.346;2022-07-24T03:54:23;37.70;;;22.60;;
33902;SDS011;20194;50.950;5.346;2022-07-24T03:56:49;40.83;;;23.67;;
33902;SDS011;20194;50.950;5.346;2022-07-24T03:59:15;40.67;;;22.98;;
33902;SDS011;20194;50.950;5.346;2022-07-24T04:01:41;36.65;;;23.13;;
33902;SDS011;20194;50.950;5.346;2022-07-24T04:04:07;33.75;;;22.90;;
33902;SDS011;20194;50.950;5.346;2022-07-24T04:06:33;34.10;;;22.05;;
33902;SDS011;20194;50.950;5.346;2022-07-24T04:09:00;34.05;;;22.75;;
33902;SDS011;20194;50.950;5.346;2022-07-24T04:11:27;29.35;;;21.80;;
33902;SDS011;20194;50.950;5.346;2022-07-24T04:13:54;35.67;;;22.05;;
33902;SDS011;20194;50.950;5.346;2022-07-24T04:16:20;39.65;;;23.83;;
33902;SDS011;20194;50.950;5.346;2022-07-24T04:18:45;32.75;;;23.13;;
33902;SDS011;20194;50.950;5.346;2022-07-24T04:21:11;34.45;;;23.40;;
33902;SDS011;20194;50.950;5.346;2022-07-24T04:23:37;33.08;;;23.40;;
33902;SDS011;20194;50.950;5.346;2022-07-24T04:26:02;38.75;;;24.25;;
33902;SDS011;20194;50.950;5.346;2022-07-24T04:28:28;37.10;;;24.88;;
33902;SDS011;20194;50.950;5.346;2022-07-24T04:30:54;39.10;;;24.83;;
33902;SDS011;20194;50.950;5.346;2022-07-24T04:33:20;40.15;;;25.85;;
33902;SDS011;20194;50.950;5.346;2022-07-24T04:35:46;38.90;;;25.48;;
33902;SDS011;20194;50.950;5.346;2022-07-24T04:38:11;36.75;;;26.92;;
33902;SDS011;20194;50.950;5.346;2022-07-24T04:40:38;43.10;;;29.35;;
33902;SDS011;20194;50.950;5.346;2022-07-24T04:43:04;49.70;;;27.48;;
33902;SDS011;20194;50.950;5.346;2022-07-24T04:45:31;40.53;;;26.92;;
33902;SDS011;20194;50.950;5.346;2022-07-24T04:47:57;40.90;;;28.75;;
33902;SDS011;20194;50.950;5.346;2022-07-24T04:50:22;44.53;;;28.67;;
33902;SDS011;20194;50.950;5.346;2022-07-24T04:52:49;45.88;;;29.08;;
33902;SDS011;20194;50.950;5.346;2022-07-24T04:55:15;48.05;;;29.50;;
33902;SDS011;20194;50.950;5.346;2022-07-24T04:57:40;46.28;;;30.00;;
33902;SDS011;20194;50.950;5.346;2022-07-24T05:00:07;44.15;;;28.45;;
33902;SDS011;20194;50.950;5.346;2022-07-24T05:02:34;47.80;;;32.35;;
33902;SDS011;20194;50.950;5.346;2022-07-24T05:05:00;45.55;;;30.67;;
33902;SDS011;20194;50.950;5.346;2022-07-24T05:07:25;50.70;;;31.65;;
33902;SDS011;20194;50.950;5.346;2022-07-24T05:09:51;46.83;;;31.58;;
33902;SDS011;20194;50.950;5.346;2022-07-24T05:12:16;44.17;;;29.75;;
33902;SDS011;20194;50.950;5.346;2022-07-24T05:14:42;49.83;;;32.00;;
33902;SDS011;20194;50.950;5.346;2022-07-24T05:17:08;45.78;;;30.92;;
33902;SDS011;20194;50.950;5.346;2022-07-24T05:19:34;46.60;;;30.40;;
33902;SDS011;20194;50.950;5.346;2022-07-24T05:22:00;48.33;;;31.00;;
33902;SDS011;20194;50.950;5.346;2022-07-24T05:24:26;45.05;;;30.67;;
33902;SDS011;20194;50.950;5.346;2022-07-24T05:26:51;42.30;;;30.45;;
33902;SDS011;20194;50.950;5.346;2022-07-24T05:29:17;47.85;;;30.55;;
33902;SDS011;20194;50.950;5.346;2022-07-24T05:31:43;47.50;;;31.08;;
33902;SDS011;20194;50.950;5.346;2022-07-24T05:34:09;46.58;;;31.08;;
33902;SDS011;20194;50.950;5.346;2022-07-24T05:36:36;48.88;;;31.20;;
33902;SDS011;20194;50.950;5.346;2022-07-24T05:39:02;48.85;;;31.13;;
33902;SDS011;20194;50.950;5.346;2022-07-24T05:41:28;45.53;;;30.17;;
33902;SDS011;20194;50.950;5.346;2022-07-24T05:43:53;46.25;;;29.30;;
33902;SDS011;20194;50.950;5.346;2022-07-24T05:46:19;44.30;;;30.38;;
33902;SDS011;20194;50.950;5.346;2022-07-24T05:48:45;39.33;;;28.67;;
33902;SDS011;20194;50.950;5.346;2022-07-24T05:51:11;43.15;;;29.63;;
33902;SDS011;20194;50.950;5.346;2022-07-24T05:53:36;45.70;;;31.02;;
33902;SDS011;20194;50.950;5.346;2022-07-24T05:56:02;47.50;;;30.45;;
33902;SDS011;20194;50.950;5.346;2022-07-24T05:58:28;45.83;;;29.90;;
33902;SDS011;20194;50.950;5.346;2022-07-24T06:00:55;44.08;;;30.65;;
33902;SDS011;20194;50.950;5.346;2022-07-24T06:03:21;57.00;;;30.27;;
33902;SDS011;20194;50.950;5.346;2022-07-24T06:05:46;43.78;;;29.80;;
33902;SDS011;20194;50.950;5.346;2022-07-24T06:08:12;47.35;;;29.58;;
33902;SDS011;20194;50.950;5.346;2022-07-24T06:10:38;48.08;;;29.27;;
33902;SDS011;20194;50.950;5.346;2022-07-24T06:13:04;45.47;;;30.52;;
33902;SDS011;20194;50.950;5.346;2022-07-24T06:15:30;52.50;;;28.42;;
33902;SDS011;20194;50.950;5.346;2022-07-24T06:17:56;42.10;;;28.88;;
33902;SDS011;20194;50.950;5.346;2022-07-24T06:20:22;45.28;;;25.92;;
33902;SDS011;20194;50.950;5.346;2022-07-24T06:22:47;35.88;;;25.08;;
33902;SDS011;20194;50.950;5.346;2022-07-24T06:25:13;41.47;;;26.85;;
33902;SDS011;20194;50.950;5.346;2022-07-24T06:27:43;36.65;;;24.10;;
33902;SDS011;20194;50.950;5.346;2022-07-24T06:30:12;40.13;;;23.20;;
33902;SDS011;20194;50.950;5.346;2022-07-24T06:32:48;33.03;;;23.30;;
33902;SDS011;20194;50.950;5.346;2022-07-24T06:35:15;39.20;;;21.65;;
33902;SDS011;20194;50.950;5.346;2022-07-24T06:37:41;33.28;;;23.55;;
33902;SDS011;20194;50.950;5.346;2022-07-24T06:40:07;33.53;;;23.98;;
33902;SDS011;20194;50.950;5.346;2022-07-24T06:42:34;42.10;;;23.17;;
33902;SDS011;20194;50.950;5.346;2022-07-24T06:45:00;35.60;;;22.42;;
33902;SDS011;20194;50.950;5.346;2022-07-24T06:47:26;37.90;;;23.60;;
33902;SDS011;20194;50.950;5.346;2022-07-24T06:49:52;35.97;;;22.27;;
33902;SDS011;20194;50.950;5.346;2022-07-24T06:52:18;32.08;;;22.10;;
33902;SDS011;20194;50.950;5.346;2022-07-24T06:54:45;31.98;;;22.08;;
33902;SDS011;20194;50.950;5.346;2022-07-24T06:57:11;33.72;;;20.95;;
33902;SDS011;20194;50.950;5.346;2022-07-24T06:59:36;33.60;;;19.48;;
33902;SDS011;20194;50.950;5.346;2022-07-24T07:02:02;28.83;;;18.02;;
33902;SDS011;20194;50.950;5.346;2022-07-24T07:04:28;26.70;;;17.05;;
33902;SDS011;20194;50.950;5.346;2022-07-24T07:06:54;41.80;;;20.25;;
33902;SDS011;20194;50.950;5.346;2022-07-24T07:09:20;25.35;;;17.15;;
33902;SDS011;20194;50.950;5.346;2022-07-24T07:11:45;33.95;;;18.80;;
33902;SDS011;20194;50.950;5.346;2022-07-24T07:14:11;29.52;;;17.25;;
33902;SDS011;20194;50.950;5.346;2022-07-24T07:16:37;29.25;;;18.17;;
33902;SDS011;20194;50.950;5.346;2022-07-24T07:19:02;27.40;;;17.27;;
33902;SDS011;20194;50.950;5.346;2022-07-24T07:21:29;26.10;;;16.80;;
33902;SDS011;20194;50.950;5.346;2022-07-24T07:23:54;21.92;;;15.20;;
33902;SDS011;20194;50.950;5.346;2022-07-24T07:26:20;24.17;;;15.52;;
33902;SDS011;20194;50.950;5.346;2022-07-24T07:28:46;26.05;;;18.35;;
33902;SDS011;20194;50.950;5.346;2022-07-24T07:31:12;28.88;;;16.73;;
33902;SDS011;20194;50.950;5.346;2022-07-24T07:33:38;24.90;;;18.10;;
33902;SDS011;20194;50.950;5.346;2022-07-24T07:36:04;23.52;;;17.05;;
33902;SDS011;20194;50.950;5.346;2022-07-24T07:38:29;25.13;;;17.25;;
33902;SDS011;20194;50.950;5.346;2022-07-24T07:40:55;32.72;;;18.38;;
33902;SDS011;20194;50.950;5.346;2022-07-24T07:43:21;28.33;;;18.92;;
33902;SDS011;20194;50.950;5.346;2022-07-24T07:45:47;25.48;;;15.60;;
33902;SDS011;20194;50.950;5.346;2022-07-24T07:48:12;28.77;;;16.58;;
33902;SDS011;20194;50.950;5.346;2022-07-24T07:50:38;25.58;;;15.63;;
33902;SDS011;20194;50.950;5.346;2022-07-24T07:53:04;26.40;;;16.58;;
33902;SDS011;20194;50.950;5.346;2022-07-24T07:55:29;28.83;;;17.25;;
33902;SDS011;20194;50.950;5.346;2022-07-24T07:57:55;25.08;;;17.13;;
33902;SDS011;20194;50.950;5.346;2022-07-24T08:00:20;22.77;;;15.93;;
33902;SDS011;20194;50.950;5.346;2022-07-24T08:02:48;27.73;;;16.80;;
33902;SDS011;20194;50.950;5.346;2022-07-24T08:05:13;16.77;;;11.82;;
33902;SDS011;20194;50.950;5.346;2022-07-24T08:07:39;24.33;;;15.05;;
33902;SDS011;20194;50.950;5.346;2022-07-24T08:10:05;27.58;;;15.02;;
33902;SDS011;20194;50.950;5.346;2022-07-24T08:12:31;24.30;;;15.57;;
33902;SDS011;20194;50.950;5.346;2022-07-24T08:14:57;20.65;;;14.00;;
33902;SDS011;20194;50.950;5.346;2022-07-24T08:17:23;29.98;;;16.95;;
33902;SDS011;20194;50.950;5.346;2022-07-24T08:19:49;22.58;;;15.68;;
33902;SDS011;20194;50.950;5.346;2022-07-24T08:22:14;26.65;;;14.70;;
33902;SDS011;20194;50.950;5.346;2022-07-24T08:24:40;21.85;;;13.32;;
33902;SDS011;20194;50.950;5.346;2022-07-24T08:27:06;24.27;;;16.10;;
33902;SDS011;20194;50.950;5.346;2022-07-24T08:29:32;16.38;;;11.48;;
33902;SDS011;20194;50.950;5.346;2022-07-24T08:31:57;18.52;;;12.32;;
33902;SDS011;20194;50.950;5.346;2022-07-24T08:34:23;20.85;;;12.15;;
33902;SDS011;20194;50.950;5.346;2022-07-24T08:36:49;21.67;;;10.60;;
33902;SDS011;20194;50.950;5.346;2022-07-24T08:39:15;12.15;;;7.68;;
33902;SDS011;20194;50.950;5.346;2022-07-24T08:41:42;14.48;;;7.65;;
33902;SDS011;20194;50.950;5.346;2022-07-24T08:44:08;11.43;;;7.70;;
33902;SDS011;20194;50.950;5.346;2022-07-24T08:46:38;12.57;;;7.20;;
33902;SDS011;20194;50.950;5.346;2022-07-24T08:49:06;9.70;;;7.60;;
33902;SDS011;20194;50.950;5.346;2022-07-24T08:51:37;13.27;;;7.25;;
33902;SDS011;20194;50.950;5.346;2022-07-24T08:54:05;10.68;;;7.43;;
33902;SDS011;20194;50.950;5.346;2022-07-24T08:56:31;14.02;;;7.32;;
33902;SDS011;20194;50.950;5.346;2022-07-24T08:59:01;12.50;;;7.43;;
33902;SDS011;20194;50.950;5.346;2022-07-24T09:01:28;9.95;;;5.47;;
33902;SDS011;20194;50.950;5.346;2022-07-24T09:03:54;9.55;;;5.93;;
33902;SDS011;20194;50.950;5.346;2022-07-24T09:06:20;9.45;;;6.05;;
33902;SDS011;20194;50.950;5.346;2022-07-24T09:08:59;8.35;;;5.18;;
33902;SDS011;20194;50.950;5.346;2022-07-24T09:11:27;9.68;;;5.22;;
33902;SDS011;20194;50.950;5.346;2022-07-24T09:14:00;10.18;;;4.60;;
33902;SDS011;20194;50.950;5.346;2022-07-24T09:16:45;8.80;;;5.00;;
33902;SDS011;20194;50.950;5.346;2022-07-24T09:19:11;9.73;;;5.25;;
33902;SDS011;20194;50.950;5.346;2022-07-24T09:21:39;13.23;;;6.60;;
33902;SDS011;20194;50.950;5.346;2022-07-24T09:24:13;6.93;;;5.07;;
33902;SDS011;20194;50.950;5.346;2022-07-24T09:26:45;9.45;;;6.10;;
33902;SDS011;20194;50.950;5.346;2022-07-24T09:29:21;13.77;;;6.65;;
33902;SDS011;20194;50.950;5.346;2022-07-24T09:31:58;12.30;;;6.13;;
33902;SDS011;20194;50.950;5.346;2022-07-24T09:34:36;13.13;;;6.15;;
33902;SDS011;20194;50.950;5.346;2022-07-24T09:37:05;7.82;;;5.35;;
33902;SDS011;20194;50.950;5.346;2022-07-24T09:39:33;9.13;;;5.43;;
33902;SDS011;20194;50.950;5.346;2022-07-24T09:42:00;12.18;;;5.60;;
33902;SDS011;20194;50.950;5.346;2022-07-24T09:44:27;8.75;;;5.30;;
33902;SDS011;20194;50.950;5.346;2022-07-24T09:46:55;11.38;;;5.80;;
33902;SDS011;20194;50.950;5.346;2022-07-24T09:49:23;7.82;;;5.25;;
33902;SDS011;20194;50.950;5.346;2022-07-24T09:54:31;6.10;;;4.40;;
33902;SDS011;20194;50.950;5.346;2022-07-24T09:57:43;7.65;;;3.15;;
33902;SDS011;20194;50.950;5.346;2022-07-24T09:59:58;4.85;;;3.15;;
33902;SDS011;20194;50.950;5.346;2022-07-24T10:02:31;5.72;;;3.53;;
33902;SDS011;20194;50.950;5.346;2022-07-24T10:04:59;4.90;;;3.50;;
33902;SDS011;20194;50.950;5.346;2022-07-24T10:07:26;5.72;;;3.60;;
33902;SDS011;20194;50.950;5.346;2022-07-24T10:09:54;4.10;;;3.47;;
33902;SDS011;20194;50.950;5.346;2022-07-24T10:12:23;6.85;;;2.90;;
33902;SDS011;20194;50.950;5.346;2022-07-24T10:14:55;4.90;;;3.07;;
33902;SDS011;20194;50.950;5.346;2022-07-24T10:17:23;4.82;;;2.67;;
33902;SDS011;20194;50.950;5.346;2022-07-24T10:20:03;7.25;;;2.88;;
33902;SDS011;20194;50.950;5.346;2022-07-24T10:22:38;4.45;;;2.47;;
33902;SDS011;20194;50.950;5.346;2022-07-24T10:25:19;3.55;;;2.40;;
33902;SDS011;20194;50.950;5.346;2022-07-24T10:27:51;4.47;;;2.47;;
33902;SDS011;20194;50.950;5.346;2022-07-24T10:30:19;6.05;;;2.47;;
33902;SDS011;20194;50.950;5.346;2022-07-24T10:32:46;2.95;;;2.20;;
33902;SDS011;20194;50.950;5.346;2022-07-24T10:35:15;2.50;;;2.30;;
33902;SDS011;20194;50.950;5.346;2022-07-24T10:43:14;6.57;;;2.38;;
33902;SDS011;20194;50.950;5.346;2022-07-24T10:51:03;2.33;;;2.10;;
33902;SDS011;20194;50.950;5.346;2022-07-24T11:01:30;3.75;;;2.30;;
33902;SDS011;20194;50.950;5.346;2022-07-24T11:04:01;2.40;;;1.92;;
33902;SDS011;20194;50.950;5.346;2022-07-24T11:06:41;3.30;;;1.90;;
33902;SDS011;20194;50.950;5.346;2022-07-24T11:09:09;3.15;;;2.20;;
33902;SDS011;20194;50.950;5.346;2022-07-24T11:11:42;5.43;;;2.58;;
33902;SDS011;20194;50.950;5.346;2022-07-24T11:20:09;7.00;;;2.20;;
33902;SDS011;20194;50.950;5.346;2022-07-24T11:22:42;4.18;;;2.35;;
33902;SDS011;20194;50.950;5.346;2022-07-24T11:25:24;2.00;;;1.83;;
33902;SDS011;20194;50.950;5.346;2022-07-24T11:30:21;2.85;;;2.35;;
33902;SDS011;20194;50.950;5.346;2022-07-24T11:32:49;1.75;;;1.65;;
33902;SDS011;20194;50.950;5.346;2022-07-24T11:35:15;1.90;;;1.80;;
33902;SDS011;20194;50.950;5.346;2022-07-24T11:37:42;2.40;;;1.90;;
33902;SDS011;20194;50.950;5.346;2022-07-24T11:40:09;9.05;;;2.10;;
33902;SDS011;20194;50.950;5.346;2022-07-24T11:42:40;3.97;;;2.00;;
33902;SDS011;20194;50.950;5.346;2022-07-24T11:45:06;2.92;;;2.08;;
33902;SDS011;20194;50.950;5.346;2022-07-24T11:47:32;3.05;;;2.22;;
33902;SDS011;20194;50.950;5.346;2022-07-24T11:49:59;2.10;;;1.88;;
33902;SDS011;20194;50.950;5.346;2022-07-24T11:52:31;2.80;;;1.85;;
33902;SDS011;20194;50.950;5.346;2022-07-24T11:55:03;2.70;;;1.70;;
33902;SDS011;20194;50.950;5.346;2022-07-24T11:57:30;2.63;;;2.00;;
33902;SDS011;20194;50.950;5.346;2022-07-24T11:59:57;2.97;;;2.20;;
33902;SDS011;20194;50.950;5.346;2022-07-24T12:02:24;4.38;;;1.90;;
33902;SDS011;20194;50.950;5.346;2022-07-24T12:04:51;2.50;;;2.00;;
33902;SDS011;20194;50.950;5.346;2022-07-24T12:07:22;4.40;;;1.92;;
33902;SDS011;20194;50.950;5.346;2022-07-24T12:12:21;1.95;;;1.58;;
33902;SDS011;20194;50.950;5.346;2022-07-24T12:14:48;4.05;;;1.90;;
33902;SDS011;20194;50.950;5.346;2022-07-24T12:17:15;7.25;;;1.92;;
33902;SDS011;20194;50.950;5.346;2022-07-24T12:19:49;1.92;;;1.58;;
33902;SDS011;20194;50.950;5.346;2022-07-24T12:22:17;4.03;;;1.70;;
33902;SDS011;20194;50.950;5.346;2022-07-24T12:24:43;2.13;;;1.92;;
33902;SDS011;20194;50.950;5.346;2022-07-24T12:27:09;2.17;;;1.95;;
33902;SDS011;20194;50.950;5.346;2022-07-24T12:29:40;4.22;;;1.70;;
33902;SDS011;20194;50.950;5.346;2022-07-24T12:32:15;2.55;;;1.60;;
33902;SDS011;20194;50.950;5.346;2022-07-24T12:34:45;1.80;;;1.70;;
33902;SDS011;20194;50.950;5.346;2022-07-24T12:37:19;3.10;;;1.92;;
33902;SDS011;20194;50.950;5.346;2022-07-24T12:39:50;1.65;;;1.55;;
33902;SDS011;20194;50.950;5.346;2022-07-24T12:42:18;2.28;;;1.85;;
33902;SDS011;20194;50.950;5.346;2022-07-24T12:44:54;2.50;;;2.30;;
33902;SDS011;20194;50.950;5.346;2022-07-24T12:47:29;2.45;;;1.95;;
33902;SDS011;20194;50.950;5.346;2022-07-24T12:49:55;3.88;;;1.77;;
33902;SDS011;20194;50.950;5.346;2022-07-24T12:52:22;3.05;;;1.70;;
33902;SDS011;20194;50.950;5.346;2022-07-24T12:54:50;1.98;;;1.60;;
33902;SDS011;20194;50.950;5.346;2022-07-24T12:57:19;1.77;;;1.67;;
33902;SDS011;20194;50.950;5.346;2022-07-24T12:59:47;2.35;;;1.70;;
33902;SDS011;20194;50.950;5.346;2022-07-24T13:02:21;2.38;;;1.92;;
33902;SDS011;20194;50.950;5.346;2022-07-24T13:04:53;2.90;;;1.90;;
33902;SDS011;20194;50.950;5.346;2022-07-24T13:07:21;3.45;;;1.92;;
33902;SDS011;20194;50.950;5.346;2022-07-24T13:09:49;3.13;;;1.88;;
33902;SDS011;20194;50.950;5.346;2022-07-24T13:12:15;2.22;;;1.90;;
33902;SDS011;20194;50.950;5.346;2022-07-24T13:14:42;5.35;;;2.00;;
33902;SDS011;20194;50.950;5.346;2022-07-24T13:17:08;1.92;;;1.83;;
33902;SDS011;20194;50.950;5.346;2022-07-24T13:19:39;2.83;;;2.00;;
33902;SDS011;20194;50.950;5.346;2022-07-24T13:22:07;2.60;;;1.80;;
33902;SDS011;20194;50.950;5.346;2022-07-24T13:24:33;5.45;;;2.03;;
33902;SDS011;20194;50.950;5.346;2022-07-24T13:26:59;3.10;;;2.60;;
33902;SDS011;20194;50.950;5.346;2022-07-24T13:29:26;4.95;;;2.03;;
33902;SDS011;20194;50.950;5.346;2022-07-24T13:31:52;2.28;;;2.10;;
33902;SDS011;20194;50.950;5.346;2022-07-24T13:34:18;3.88;;;2.53;;
33902;SDS011;20194;50.950;5.346;2022-07-24T13:36:44;6.40;;;2.30;;
33902;SDS011;20194;50.950;5.346;2022-07-24T13:39:10;3.78;;;2.40;;
33902;SDS011;20194;50.950;5.346;2022-07-24T13:41:36;7.93;;;2.65;;
33902;SDS011;20194;50.950;5.346;2022-07-24T13:44:02;4.05;;;2.72;;
33902;SDS011;20194;50.950;5.346;2022-07-24T13:46:30;3.30;;;2.20;;
33902;SDS011;20194;50.950;5.346;2022-07-24T13:48:56;3.53;;;2.35;;
33902;SDS011;20194;50.950;5.346;2022-07-24T13:51:22;4.15;;;2.42;;
33902;SDS011;20194;50.950;5.346;2022-07-24T13:53:49;4.53;;;2.85;;
33902;SDS011;20194;50.950;5.346;2022-07-24T13:56:14;2.60;;;2.40;;
33902;SDS011;20194;50.950;5.346;2022-07-24T13:58:40;3.05;;;2.75;;
33902;SDS011;20194;50.950;5.346;2022-07-24T14:01:09;4.03;;;2.80;;
33902;SDS011;20194;50.950;5.346;2022-07-24T14:03:37;4.93;;;2.58;;
33902;SDS011;20194;50.950;5.346;2022-07-24T14:06:04;3.08;;;2.80;;
33902;SDS011;20194;50.950;5.346;2022-07-24T14:08:30;5.05;;;2.92;;
33902;SDS011;20194;50.950;5.346;2022-07-24T14:10:56;5.47;;;2.70;;
33902;SDS011;20194;50.950;5.346;2022-07-24T14:13:22;10.38;;;3.13;;
33902;SDS011;20194;50.950;5.346;2022-07-24T14:15:48;3.78;;;2.83;;
33902;SDS011;20194;50.950;5.346;2022-07-24T14:18:14;4.30;;;2.60;;
33902;SDS011;20194;50.950;5.346;2022-07-24T14:20:39;5.00;;;3.22;;
33902;SDS011;20194;50.950;5.346;2022-07-24T14:23:05;4.43;;;2.90;;
33902;SDS011;20194;50.950;5.346;2022-07-24T14:25:31;5.78;;;3.42;;
33902;SDS011;20194;50.950;5.346;2022-07-24T14:27:57;3.50;;;3.20;;
33902;SDS011;20194;50.950;5.346;2022-07-24T14:30:22;5.63;;;3.80;;
33902;SDS011;20194;50.950;5.346;2022-07-24T14:32:48;4.10;;;3.20;;
33902;SDS011;20194;50.950;5.346;2022-07-24T14:35:14;4.10;;;3.00;;
33902;SDS011;20194;50.950;5.346;2022-07-24T14:37:40;6.13;;;3.95;;
33902;SDS011;20194;50.950;5.346;2022-07-24T14:40:06;4.20;;;3.70;;
33902;SDS011;20194;50.950;5.346;2022-07-24T14:42:34;4.82;;;3.45;;
33902;SDS011;20194;50.950;5.346;2022-07-24T14:45:01;6.90;;;3.60;;
33902;SDS011;20194;50.950;5.346;2022-07-24T14:47:27;4.07;;;3.70;;
33902;SDS011;20194;50.950;5.346;2022-07-24T14:49:53;4.78;;;3.40;;
33902;SDS011;20194;50.950;5.346;2022-07-24T14:52:20;3.88;;;3.47;;
33902;SDS011;20194;50.950;5.346;2022-07-24T14:54:47;3.97;;;3.40;;
33902;SDS011;20194;50.950;5.346;2022-07-24T14:57:14;4.00;;;3.10;;
33902;SDS011;20194;50.950;5.346;2022-07-24T14:59:40;8.57;;;3.80;;
33902;SDS011;20194;50.950;5.346;2022-07-24T15:02:06;4.60;;;3.13;;
33902;SDS011;20194;50.950;5.346;2022-07-24T15:04:33;6.43;;;3.53;;
33902;SDS011;20194;50.950;5.346;2022-07-24T15:06:59;10.40;;;3.30;;